PWSweather.com
Personal Weather Stations
Station Observations
IONTARIO88
Lincoln, ON L0R

Lincoln, ON L0R

Lat: 43.1763563, Lon: -79.4719525

Elevation: 297

Station Type: Davis Vantage Pro 2 Plus

http://www.beamsvillewx.ca

High Low Average
Temperature 64.9°F18.3°C 34.7°F1.5°C 45.8°F7.7°C
Dew Point 54.5°F12.5°C 27.9°F-2.3°C 40.0°F4.4°C
Winds 9.0 mph 14.5 kmh Calm Calm 4.0 mph WNW6.4 kmh WNW
Wind Gusts 22.0 mph35.4 kmh -- 9.0 mph14.5 kmh
Humidity 93% 68% 81%
Pressure 30.64 in1037.6 mb 29.97 in1014.9 mb -
Precipitation 0.23 in5.8 mm - -
Hour Temp Dew Point Humidity Winds Wind Gusts Pressure Precip Precip Rate Daily Precip Total
12:00 AM 64.6°F18.1°C 55.3°F12.9°C 72% 7.0 mph SSW11.3 kmh SSW 17.0 mph27.4 kmh 29.99 in1015.6 mb 0.00 in0.0 mm 0.00 in0.0 mm 0.29 in7.4 mm
12:15 AM 64.8°F18.2°C 55.1°F12.8°C 71% 7.0 mph SSW11.3 kmh SSW 20.0 mph32.2 kmh 29.98 in1015.2 mb 0.00 in0.0 mm 0.00 in0.0 mm 0.29 in7.4 mm
12:30 AM 64.9°F18.3°C 55.3°F12.9°C 71% 7.0 mph SW11.3 kmh SW 18.0 mph29.0 kmh 29.98 in1015.2 mb 0.00 in0.0 mm 0.00 in0.0 mm 0.29 in7.4 mm
12:45 AM 64.8°F18.2°C 55.1°F12.8°C 71% 7.0 mph SW11.3 kmh SW 14.0 mph22.5 kmh 29.99 in1015.6 mb 0.00 in0.0 mm 0.00 in0.0 mm 0.29 in7.4 mm
01:00 AM 64.9°F18.3°C 54.5°F12.5°C 69% 8.0 mph SW12.9 kmh SW 21.0 mph33.8 kmh 29.99 in1015.6 mb 0.00 in0.0 mm 0.00 in0.0 mm 0.00 in0.0 mm
01:15 AM 64.9°F18.3°C 54.1°F12.3°C 68% 9.0 mph SW14.5 kmh SW 18.0 mph29.0 kmh 29.99 in1015.6 mb 0.00 in0.0 mm 0.00 in0.0 mm 0.00 in0.0 mm
01:30 AM 64.9°F18.3°C 54.1°F12.3°C 68% 8.0 mph SW12.9 kmh SW 18.0 mph29.0 kmh 29.99 in1015.6 mb 0.00 in0.0 mm 0.00 in0.0 mm 0.00 in0.0 mm
01:45 AM 64.8°F18.2°C 53.9°F12.2°C 68% 9.0 mph SW14.5 kmh SW 18.0 mph29.0 kmh 29.98 in1015.2 mb 0.00 in0.0 mm 0.00 in0.0 mm 0.00 in0.0 mm
02:00 AM 64.2°F17.9°C 53.4°F11.9°C 68% 8.0 mph SW12.9 kmh SW 22.0 mph35.4 kmh 29.98 in1015.2 mb 0.00 in0.0 mm 0.00 in0.0 mm 0.00 in0.0 mm
02:15 AM 63.9°F17.7°C 53.5°F11.9°C 69% 7.0 mph SW11.3 kmh SW 18.0 mph29.0 kmh 29.99 in1015.6 mb 0.00 in0.0 mm 0.00 in0.0 mm 0.00 in0.0 mm
02:30 AM 63.3°F17.4°C 53.4°F11.9°C 70% 8.0 mph SW12.9 kmh SW 18.0 mph29.0 kmh 30.00 in1015.9 mb 0.00 in0.0 mm 0.00 in0.0 mm 0.00 in0.0 mm
02:45 AM 62.6°F17.0°C 53.1°F11.7°C 71% 8.0 mph WSW12.9 kmh WSW 19.0 mph30.6 kmh 30.01 in1016.3 mb 0.00 in0.0 mm 0.00 in0.0 mm 0.00 in0.0 mm
03:00 AM 62.2°F16.8°C 53.1°F11.7°C 72% 7.0 mph WSW11.3 kmh WSW 16.0 mph25.7 kmh 30.02 in1016.6 mb 0.00 in0.0 mm 0.00 in0.0 mm 0.00 in0.0 mm
03:15 AM 61.7°F16.5°C 53.0°F11.7°C 73% 5.0 mph SW8.0 kmh SW 13.0 mph20.9 kmh 30.02 in1016.6 mb 0.00 in0.0 mm 0.00 in0.0 mm 0.00 in0.0 mm
03:30 AM 61.3°F16.3°C 52.6°F11.4°C 73% 4.0 mph SW6.4 kmh SW 11.0 mph17.7 kmh 30.02 in1016.6 mb 0.00 in0.0 mm 0.00 in0.0 mm 0.00 in0.0 mm
03:45 AM 61.2°F16.2°C 52.8°F11.6°C 74% 5.0 mph SW8.0 kmh SW 11.0 mph17.7 kmh 30.02 in1016.6 mb 0.00 in0.0 mm 0.00 in0.0 mm 0.00 in0.0 mm
04:00 AM 61.3°F16.3°C 53.0°F11.7°C 74% 5.0 mph SW8.0 kmh SW 13.0 mph20.9 kmh 30.02 in1016.6 mb 0.00 in0.0 mm 0.00 in0.0 mm 0.00 in0.0 mm
04:15 AM 61.0°F16.1°C 53.0°F11.7°C 75% 5.0 mph SW8.0 kmh SW 12.0 mph19.3 kmh 30.01 in1016.3 mb 0.00 in0.0 mm 0.00 in0.0 mm 0.00 in0.0 mm
04:30 AM 60.4°F15.8°C 52.8°F11.6°C 76% 4.0 mph SW6.4 kmh SW 9.0 mph14.5 kmh 30.01 in1016.3 mb 0.00 in0.0 mm 0.00 in0.0 mm 0.00 in0.0 mm
04:45 AM 59.9°F15.5°C 52.7°F11.5°C 77% 4.0 mph SW6.4 kmh SW 10.0 mph16.1 kmh 30.00 in1015.9 mb 0.00 in0.0 mm 0.00 in0.0 mm 0.00 in0.0 mm
05:00 AM 59.7°F15.4°C 52.8°F11.6°C 78% 4.0 mph SW6.4 kmh SW 10.0 mph16.1 kmh 30.00 in1015.9 mb 0.00 in0.0 mm 0.00 in0.0 mm 0.00 in0.0 mm
05:15 AM 59.7°F15.4°C 52.8°F11.6°C 78% 4.0 mph SW6.4 kmh SW 9.0 mph14.5 kmh 30.00 in1015.9 mb 0.00 in0.0 mm 0.00 in0.0 mm 0.00 in0.0 mm
05:30 AM 59.5°F15.3°C 52.7°F11.5°C 78% 4.0 mph SW6.4 kmh SW 8.0 mph12.9 kmh 30.00 in1015.9 mb 0.00 in0.0 mm 0.00 in0.0 mm 0.00 in0.0 mm
05:45 AM 59.2°F15.1°C 52.7°F11.5°C 79% 4.0 mph SW6.4 kmh SW 9.0 mph14.5 kmh 29.98 in1015.2 mb 0.00 in0.0 mm 0.00 in0.0 mm 0.00 in0.0 mm
06:00 AM 58.6°F14.8°C 52.5°F11.4°C 80% 3.0 mph SW4.8 kmh SW 8.0 mph12.9 kmh 29.98 in1015.2 mb 0.00 in0.0 mm 0.00 in0.0 mm 0.00 in0.0 mm
06:15 AM 58.6°F14.8°C 52.8°F11.6°C 81% 2.0 mph SW3.2 kmh SW 5.0 mph8.0 kmh 29.97 in1014.9 mb 0.00 in0.0 mm 0.00 in0.0 mm 0.00 in0.0 mm
06:30 AM 58.6°F14.8°C 53.2°F11.8°C 82% 3.0 mph SW4.8 kmh SW 7.0 mph11.3 kmh 29.97 in1014.9 mb 0.00 in0.0 mm 0.00 in0.0 mm 0.00 in0.0 mm
06:45 AM 58.3°F14.6°C 52.8°F11.6°C 82% 1.0 mph SW1.6 kmh SW 5.0 mph8.0 kmh 29.98 in1015.2 mb 0.00 in0.0 mm 0.00 in0.0 mm 0.00 in0.0 mm
07:00 AM 58.1°F14.5°C 53.0°F11.7°C 83% 1.0 mph SW1.6 kmh SW 4.0 mph6.4 kmh 29.98 in1015.2 mb 0.00 in0.0 mm 0.00 in0.0 mm 0.00 in0.0 mm
07:15 AM 54.5°F12.5°C 49.4°F9.7°C 83% 6.0 mph NW9.7 kmh NW 15.0 mph24.1 kmh 30.01 in1016.3 mb 0.00 in0.0 mm 0.00 in0.0 mm 0.00 in0.0 mm
07:30 AM 53.6°F12.0°C 50.1°F10.1°C 88% 1.0 mph NW1.6 kmh NW 6.0 mph9.7 kmh 30.02 in1016.6 mb 0.00 in0.0 mm 0.00 in0.0 mm 0.00 in0.0 mm
07:45 AM 54.0°F12.2°C 50.8°F10.4°C 89% Calm Calm 1.0 mph1.6 kmh 30.03 in1016.9 mb 0.00 in0.0 mm 0.00 in0.0 mm 0.00 in0.0 mm
08:00 AM 54.1°F12.3°C 51.0°F10.6°C 89% 1.0 mph NW1.6 kmh NW 5.0 mph8.0 kmh 30.04 in1017.3 mb 0.00 in0.0 mm 0.00 in0.0 mm 0.00 in0.0 mm
08:15 AM 54.3°F12.4°C 51.4°F10.8°C 90% 1.0 mph NW1.6 kmh NW 6.0 mph9.7 kmh 30.06 in1017.9 mb 0.01 in0.3 mm 0.04 in1.0 mm 0.01 in0.3 mm
08:30 AM 54.9°F12.7°C 52.6°F11.4°C 92% 3.0 mph NW4.8 kmh NW 8.0 mph12.9 kmh 30.07 in1018.3 mb 0.06 in1.5 mm 0.20 in5.1 mm 0.06 in1.5 mm
08:45 AM 55.0°F12.8°C 52.8°F11.6°C 92% 3.0 mph NW4.8 kmh NW 7.0 mph11.3 kmh 30.08 in1018.6 mb 0.08 in2.0 mm 0.08 in2.0 mm 0.08 in2.0 mm
09:00 AM 55.0°F12.8°C 53.1°F11.7°C 93% 3.0 mph NW4.8 kmh NW 7.0 mph11.3 kmh 30.09 in1019.0 mb 0.09 in2.3 mm 0.01 in0.3 mm 0.09 in2.3 mm
09:15 AM 44.8°F7.1°C 41.1°F5.1°C 87% 9.0 mph N14.5 kmh N 17.0 mph27.4 kmh 30.14 in1020.7 mb 0.11 in2.8 mm 0.08 in2.0 mm 0.12 in3.0 mm
09:30 AM 41.5°F5.3°C 39.1°F3.9°C 91% 4.0 mph N6.4 kmh N 12.0 mph19.3 kmh 30.17 in1021.7 mb 0.07 in1.8 mm 0.00 in0.0 mm 0.13 in3.3 mm
09:45 AM 40.6°F4.8°C 38.5°F3.6°C 92% 4.0 mph N6.4 kmh N 9.0 mph14.5 kmh 30.17 in1021.7 mb 0.06 in1.5 mm 0.00 in0.0 mm 0.14 in3.6 mm
10:00 AM 40.1°F4.5°C 38.0°F3.3°C 92% 3.0 mph N4.8 kmh N 7.0 mph11.3 kmh 30.19 in1022.4 mb 0.06 in1.5 mm 0.00 in0.0 mm 0.15 in3.8 mm
10:15 AM 39.9°F4.4°C 37.8°F3.2°C 92% 4.0 mph N6.4 kmh N 9.0 mph14.5 kmh 30.20 in1022.7 mb 0.04 in1.0 mm 0.00 in0.0 mm 0.16 in4.1 mm
10:30 AM 39.7°F4.3°C 37.9°F3.3°C 93% 2.0 mph N3.2 kmh N 9.0 mph14.5 kmh 30.21 in1023.0 mb 0.05 in1.3 mm 0.04 in1.0 mm 0.17 in4.3 mm
10:45 AM 39.9°F4.4°C 38.1°F3.4°C 93% 3.0 mph N4.8 kmh N 7.0 mph11.3 kmh 30.23 in1023.7 mb 0.04 in1.0 mm 0.00 in0.0 mm 0.18 in4.6 mm
11:00 AM 40.3°F4.6°C 38.4°F3.6°C 93% 2.0 mph N3.2 kmh N 6.0 mph9.7 kmh 30.24 in1024.0 mb 0.04 in1.0 mm 0.00 in0.0 mm 0.19 in4.8 mm
11:15 AM 40.5°F4.7°C 38.6°F3.7°C 93% 6.0 mph NNW9.7 kmh NNW 14.0 mph22.5 kmh 30.27 in1025.1 mb 0.04 in1.0 mm 0.00 in0.0 mm 0.20 in5.1 mm
11:30 AM 40.6°F4.8°C 38.5°F3.6°C 92% 6.0 mph N9.7 kmh N 12.0 mph19.3 kmh 30.28 in1025.4 mb 0.02 in0.5 mm 0.00 in0.0 mm 0.20 in5.1 mm
11:45 AM 41.2°F5.1°C 39.0°F3.9°C 92% 6.0 mph NNW9.7 kmh NNW 13.0 mph20.9 kmh 30.28 in1025.4 mb 0.02 in0.5 mm 0.00 in0.0 mm 0.20 in5.1 mm
12:00 PM 40.8°F4.9°C 38.1°F3.4°C 90% 7.0 mph N11.3 kmh N 14.0 mph22.5 kmh 30.30 in1026.1 mb 0.00 in0.0 mm 0.00 in0.0 mm 0.20 in5.1 mm
12:15 PM 40.6°F4.8°C 38.2°F3.4°C 91% 7.0 mph N11.3 kmh N 14.0 mph22.5 kmh 30.31 in1026.4 mb 0.00 in0.0 mm 0.00 in0.0 mm 0.20 in5.1 mm
12:30 PM 40.6°F4.8°C 38.2°F3.4°C 91% 6.0 mph NNW9.7 kmh NNW 11.0 mph17.7 kmh 30.31 in1026.4 mb 0.01 in0.3 mm 0.04 in1.0 mm 0.20 in5.1 mm
12:45 PM 40.6°F4.8°C 38.2°F3.4°C 91% 6.0 mph NW9.7 kmh NW 10.0 mph16.1 kmh 30.32 in1026.8 mb 0.01 in0.3 mm 0.00 in0.0 mm 0.20 in5.1 mm
01:00 PM 39.9°F4.4°C 37.2°F2.9°C 90% 8.0 mph NW12.9 kmh NW 15.0 mph24.1 kmh 30.34 in1027.4 mb 0.01 in0.3 mm 0.00 in0.0 mm 0.20 in5.1 mm
01:15 PM 40.1°F4.5°C 37.4°F3.0°C 90% 5.0 mph NW8.0 kmh NW 11.0 mph17.7 kmh 30.34 in1027.4 mb 0.02 in0.5 mm 0.04 in1.0 mm 0.21 in5.3 mm
01:30 PM 40.1°F4.5°C 37.7°F3.2°C 91% 5.0 mph NW8.0 kmh NW 11.0 mph17.7 kmh 30.35 in1027.8 mb 0.01 in0.3 mm 0.00 in0.0 mm 0.21 in5.3 mm
01:45 PM 39.9°F4.4°C 36.9°F2.7°C 89% 8.0 mph NW12.9 kmh NW 16.0 mph25.7 kmh 30.36 in1028.1 mb 0.01 in0.3 mm 0.00 in0.0 mm 0.21 in5.3 mm
02:00 PM 39.6°F4.2°C 36.0°F2.2°C 87% 8.0 mph NW12.9 kmh NW 14.0 mph22.5 kmh 30.36 in1028.1 mb 0.01 in0.3 mm 0.00 in0.0 mm 0.21 in5.3 mm
02:15 PM 39.4°F4.1°C 36.1°F2.3°C 88% 7.0 mph NW11.3 kmh NW 13.0 mph20.9 kmh 30.38 in1028.8 mb 0.01 in0.3 mm 0.00 in0.0 mm 0.22 in5.6 mm
02:30 PM 38.8°F3.8°C 35.6°F2.0°C 88% 6.0 mph NW9.7 kmh NW 13.0 mph20.9 kmh 30.39 in1029.1 mb 0.01 in0.3 mm 0.00 in0.0 mm 0.22 in5.6 mm
02:45 PM 38.5°F3.6°C 34.9°F1.6°C 87% 7.0 mph WNW11.3 kmh WNW 13.0 mph20.9 kmh 30.41 in1029.8 mb 0.02 in0.5 mm 0.04 in1.0 mm 0.23 in5.8 mm
03:00 PM 38.7°F3.7°C 35.1°F1.7°C 87% 5.0 mph NW8.0 kmh NW 12.0 mph19.3 kmh 30.41 in1029.8 mb 0.02 in0.5 mm 0.00 in0.0 mm 0.23 in5.8 mm
03:15 PM 38.8°F3.8°C 34.4°F1.3°C 84% 5.0 mph WNW8.0 kmh WNW 10.0 mph16.1 kmh 30.42 in1030.1 mb 0.01 in0.3 mm 0.00 in0.0 mm 0.23 in5.8 mm
03:30 PM 39.0°F3.9°C 33.4°F0.8°C 80% 4.0 mph NW6.4 kmh NW 11.0 mph17.7 kmh 30.44 in1030.8 mb 0.01 in0.3 mm 0.00 in0.0 mm 0.23 in5.8 mm
03:45 PM 39.0°F3.9°C 33.1°F0.6°C 79% 5.0 mph NW8.0 kmh NW 10.0 mph16.1 kmh 30.44 in1030.8 mb 0.00 in0.0 mm 0.00 in0.0 mm 0.23 in5.8 mm
04:00 PM 39.4°F4.1°C 33.7°F0.9°C 80% 6.0 mph NW9.7 kmh NW 10.0 mph16.1 kmh 30.44 in1030.8 mb 0.00 in0.0 mm 0.00 in0.0 mm 0.23 in5.8 mm
04:15 PM 39.4°F4.1°C 33.1°F0.6°C 78% 5.0 mph NW8.0 kmh NW 10.0 mph16.1 kmh 30.46 in1031.5 mb 0.00 in0.0 mm 0.00 in0.0 mm 0.23 in5.8 mm
04:30 PM 39.7°F4.3°C 32.5°F0.3°C 75% 6.0 mph NW9.7 kmh NW 11.0 mph17.7 kmh 30.47 in1031.8 mb 0.00 in0.0 mm 0.00 in0.0 mm 0.23 in5.8 mm
04:45 PM 39.6°F4.2°C 32.3°F0.2°C 75% 4.0 mph NW6.4 kmh NW 10.0 mph16.1 kmh 30.48 in1032.2 mb 0.00 in0.0 mm 0.00 in0.0 mm 0.23 in5.8 mm
05:00 PM 39.7°F4.3°C 32.1°F0.1°C 74% 3.0 mph NW4.8 kmh NW 7.0 mph11.3 kmh 30.48 in1032.2 mb 0.00 in0.0 mm 0.00 in0.0 mm 0.23 in5.8 mm
05:15 PM 39.9°F4.4°C 31.6°F-0.2°C 72% 4.0 mph NW6.4 kmh NW 9.0 mph14.5 kmh 30.49 in1032.5 mb 0.00 in0.0 mm 0.00 in0.0 mm 0.23 in5.8 mm
05:30 PM 39.7°F4.3°C 31.8°F-0.1°C 73% 3.0 mph NW4.8 kmh NW 7.0 mph11.3 kmh 30.50 in1032.8 mb 0.00 in0.0 mm 0.00 in0.0 mm 0.23 in5.8 mm
05:45 PM 39.6°F4.2°C 31.3°F-0.4°C 72% 2.0 mph NW3.2 kmh NW 6.0 mph9.7 kmh 30.50 in1032.8 mb 0.00 in0.0 mm 0.00 in0.0 mm 0.23 in5.8 mm
06:00 PM 39.7°F4.3°C 31.1°F-0.5°C 71% 2.0 mph NW3.2 kmh NW 4.0 mph6.4 kmh 30.51 in1033.2 mb 0.00 in0.0 mm 0.00 in0.0 mm 0.23 in5.8 mm
06:15 PM 39.4°F4.1°C 30.8°F-0.7°C 71% 1.0 mph NW1.6 kmh NW 3.0 mph4.8 kmh 30.52 in1033.5 mb 0.00 in0.0 mm 0.00 in0.0 mm 0.23 in5.8 mm
06:30 PM 39.4°F4.1°C 30.8°F-0.7°C 71% 1.0 mph NW1.6 kmh NW 2.0 mph3.2 kmh 30.52 in1033.5 mb 0.00 in0.0 mm 0.00 in0.0 mm 0.23 in5.8 mm
06:45 PM 39.0°F3.9°C 30.4°F-0.9°C 71% 1.0 mph NW1.6 kmh NW 5.0 mph8.0 kmh 30.52 in1033.5 mb 0.00 in0.0 mm 0.00 in0.0 mm 0.23 in5.8 mm
07:00 PM 38.8°F3.8°C 30.6°F-0.8°C 72% 1.0 mph NW1.6 kmh NW 2.0 mph3.2 kmh 30.53 in1033.9 mb 0.00 in0.0 mm 0.00 in0.0 mm 0.23 in5.8 mm
07:15 PM 38.7°F3.7°C 31.1°F-0.5°C 74% Calm Calm 2.0 mph3.2 kmh 30.55 in1034.5 mb 0.00 in0.0 mm 0.00 in0.0 mm 0.23 in5.8 mm
07:30 PM 38.7°F3.7°C 31.4°F-0.3°C 75% Calm Calm -- 30.55 in1034.5 mb 0.00 in0.0 mm 0.00 in0.0 mm 0.23 in5.8 mm
07:45 PM 38.5°F3.6°C 31.9°F-0.1°C 77% Calm Calm 1.0 mph1.6 kmh 30.56 in1034.9 mb 0.00 in0.0 mm 0.00 in0.0 mm 0.23 in5.8 mm
08:00 PM 38.1°F3.4°C 31.5°F-0.3°C 77% 3.0 mph NW4.8 kmh NW 7.0 mph11.3 kmh 30.57 in1035.2 mb 0.00 in0.0 mm 0.00 in0.0 mm 0.23 in5.8 mm
08:15 PM 37.6°F3.1°C 30.4°F-0.9°C 75% 3.0 mph NW4.8 kmh NW 8.0 mph12.9 kmh 30.57 in1035.2 mb 0.00 in0.0 mm 0.00 in0.0 mm 0.23 in5.8 mm
08:30 PM 37.2°F2.9°C 31.0°F-0.6°C 78% 2.0 mph NW3.2 kmh NW 5.0 mph8.0 kmh 30.57 in1035.2 mb 0.00 in0.0 mm 0.00 in0.0 mm 0.23 in5.8 mm
08:45 PM 36.9°F2.7°C 31.0°F-0.6°C 79% 2.0 mph NW3.2 kmh NW 7.0 mph11.3 kmh 30.57 in1035.2 mb 0.00 in0.0 mm 0.00 in0.0 mm 0.23 in5.8 mm
09:00 PM 36.3°F2.4°C 30.4°F-0.9°C 79% 1.0 mph NW1.6 kmh NW 4.0 mph6.4 kmh 30.58 in1035.6 mb 0.00 in0.0 mm 0.00 in0.0 mm 0.23 in5.8 mm
09:15 PM 36.1°F2.3°C 30.3°F-0.9°C 79% 2.0 mph NW3.2 kmh NW 5.0 mph8.0 kmh 30.59 in1035.9 mb 0.00 in0.0 mm 0.00 in0.0 mm 0.23 in5.8 mm
09:30 PM 35.8°F2.1°C 29.9°F-1.2°C 79% 2.0 mph NW3.2 kmh NW 5.0 mph8.0 kmh 30.60 in1036.2 mb 0.00 in0.0 mm 0.00 in0.0 mm 0.23 in5.8 mm
09:45 PM 35.4°F1.9°C 29.9°F-1.2°C 80% 1.0 mph NW1.6 kmh NW 2.0 mph3.2 kmh 30.60 in1036.2 mb 0.00 in0.0 mm 0.00 in0.0 mm 0.23 in5.8 mm
10:00 PM 35.1°F1.7°C 29.5°F-1.4°C 80% 1.0 mph NW1.6 kmh NW 4.0 mph6.4 kmh 30.60 in1036.2 mb 0.00 in0.0 mm 0.00 in0.0 mm 0.23 in5.8 mm
10:15 PM 34.7°F1.5°C 29.2°F-1.6°C 80% 1.0 mph NW1.6 kmh NW 5.0 mph8.0 kmh 30.61 in1036.6 mb 0.00 in0.0 mm 0.00 in0.0 mm 0.23 in5.8 mm
10:30 PM 34.7°F1.5°C 29.2°F-1.6°C 80% 2.0 mph NW3.2 kmh NW 6.0 mph9.7 kmh 30.61 in1036.6 mb 0.00 in0.0 mm 0.00 in0.0 mm 0.23 in5.8 mm
10:45 PM 34.9°F1.6°C 29.0°F-1.7°C 79% 2.0 mph NW3.2 kmh NW 5.0 mph8.0 kmh 30.61 in1036.6 mb 0.00 in0.0 mm 0.00 in0.0 mm 0.23 in5.8 mm
11:00 PM 34.9°F1.6°C 29.0°F-1.7°C 79% 3.0 mph NW4.8 kmh NW 7.0 mph11.3 kmh 30.61 in1036.6 mb 0.00 in0.0 mm 0.00 in0.0 mm 0.23 in5.8 mm
11:15 PM 34.9°F1.6°C 28.7°F-1.8°C 78% 3.0 mph NW4.8 kmh NW 7.0 mph11.3 kmh 30.62 in1036.9 mb 0.00 in0.0 mm 0.00 in0.0 mm 0.23 in5.8 mm
11:30 PM 34.9°F1.6°C 28.7°F-1.8°C 78% 4.0 mph NNW6.4 kmh NNW 10.0 mph16.1 kmh 30.62 in1036.9 mb 0.00 in0.0 mm 0.00 in0.0 mm 0.23 in5.8 mm
11:45 PM 34.9°F1.6°C 29.0°F-1.7°C 79% 4.0 mph NW6.4 kmh NW 8.0 mph12.9 kmh 30.63 in1037.3 mb 0.00 in0.0 mm 0.00 in0.0 mm 0.23 in5.8 mm